JFA652 EDHL-EGGW
Flight info
| Callsign | JFA652 |
|---|---|
| Flight time | N/A |
| Altitude | 26000 |
| Route | HAM1A HAM DCT EEL DCT GORLO DCT IDESI DCT |
| Aircraft | PC12/L-SDFGRWY/S |
Departure
| Time | 2026-05-08 12:15 |
|---|---|
| Airport | Lübeck Blankensee Airport (EDHL) |
Arrival
| Time | N/A |
|---|---|
| Airport | London Luton Airport (EGGW) |
| Time | Latitude | Longitude | Altitude | Speed | Heading |
|---|---|---|---|---|---|
| 2026-05-08 12:09 | 53.80481 | 10.70312 | 55 ft | 0 kts | 325° |
| 2026-05-08 12:13 | 53.80482 | 10.70310 | 55 ft | 1 kts | 288° |
| 2026-05-08 12:13 | 53.80461 | 10.70332 | 54 ft | 6 kts | 141° |
| 2026-05-08 12:13 | 53.80442 | 10.70352 | 55 ft | 6 kts | 171° |
| 2026-05-08 12:14 | 53.80413 | 10.70272 | 51 ft | 11 kts | 251° |
| 2026-05-08 12:14 | 53.80391 | 10.70159 | 55 ft | 10 kts | 251° |
| 2026-05-08 12:14 | 53.80320 | 10.70132 | 55 ft | 17 kts | 170° |
| 2026-05-08 12:14 | 53.80224 | 10.70164 | 57 ft | 11 kts | 167° |
| 2026-05-08 12:15 | 53.80223 | 10.70315 | 55 ft | 35 kts | 73° |
| 2026-05-08 12:15 | 53.80377 | 10.71122 | 64 ft | 102 kts | 72° |
| 2026-05-08 12:15 | 53.80639 | 10.72407 | 374 ft | 140 kts | 72° |
| 2026-05-08 12:15 | 53.80976 | 10.74080 | 1180 ft | 143 kts | 72° |
| 2026-05-08 12:16 | 53.81251 | 10.75565 | 2431 ft | 124 kts | 75° |
| 2026-05-08 12:16 | 53.81497 | 10.76929 | 3280 ft | 127 kts | 73° |
| 2026-05-08 12:16 | 53.81785 | 10.78397 | 4069 ft | 132 kts | 74° |
| 2026-05-08 12:16 | 53.82052 | 10.79846 | 4936 ft | 131 kts | 75° |
| 2026-05-08 12:17 | 53.82333 | 10.81322 | 5798 ft | 133 kts | 75° |
| 2026-05-08 12:17 | 53.82623 | 10.82826 | 6596 ft | 136 kts | 73° |
| 2026-05-08 12:17 | 53.82922 | 10.84368 | 7371 ft | 139 kts | 73° |
| 2026-05-08 12:17 | 53.83229 | 10.85971 | 8122 ft | 144 kts | 73° |
| 2026-05-08 12:18 | 53.83245 | 10.87606 | 8904 ft | 144 kts | 110° |
| 2026-05-08 12:18 | 53.82569 | 10.88901 | 9690 ft | 152 kts | 152° |
| 2026-05-08 12:18 | 53.81527 | 10.89173 | 10482 ft | 157 kts | 178° |
| 2026-05-08 12:18 | 53.80426 | 10.89173 | 11245 ft | 159 kts | 178° |
| 2026-05-08 12:19 | 53.79306 | 10.89186 | 12017 ft | 162 kts | 179° |
| 2026-05-08 12:19 | 53.78170 | 10.89196 | 12803 ft | 164 kts | 179° |
| 2026-05-08 12:19 | 53.77042 | 10.88880 | 13574 ft | 167 kts | 203° |
| 2026-05-08 12:19 | 53.76086 | 10.87727 | 14343 ft | 169 kts | 229° |
| 2026-05-08 12:20 | 53.75529 | 10.86023 | 15064 ft | 169 kts | 253° |
| 2026-05-08 12:20 | 53.75317 | 10.84077 | 15844 ft | 167 kts | 260° |
| 2026-05-08 12:20 | 53.75109 | 10.82120 | 16565 ft | 171 kts | 259° |
| 2026-05-08 12:20 | 53.74900 | 10.80133 | 17336 ft | 172 kts | 260° |
| 2026-05-08 12:21 | 53.74694 | 10.78138 | 18103 ft | 173 kts | 260° |
| 2026-05-08 12:21 | 53.74487 | 10.76144 | 18882 ft | 170 kts | 260° |
| 2026-05-08 12:21 | 53.74277 | 10.74136 | 19488 ft | 176 kts | 260° |
| 2026-05-08 12:21 | 53.74067 | 10.72107 | 20230 ft | 172 kts | 260° |
| 2026-05-08 12:22 | 53.73857 | 10.70109 | 20932 ft | 174 kts | 260° |
| 2026-05-08 12:22 | 53.73641 | 10.68056 | 21537 ft | 180 kts | 260° |
| 2026-05-08 12:22 | 53.73424 | 10.65972 | 22231 ft | 180 kts | 260° |
| 2026-05-08 12:22 | 53.73201 | 10.63854 | 22737 ft | 192 kts | 260° |
| 2026-05-08 12:23 | 53.72952 | 10.61485 | 22847 ft | 218 kts | 260° |
| 2026-05-08 12:23 | 53.72676 | 10.58847 | 22954 ft | 236 kts | 260° |
| 2026-05-08 12:23 | 53.72385 | 10.56095 | 23369 ft | 239 kts | 260° |
| 2026-05-08 12:23 | 53.72090 | 10.53323 | 23799 ft | 240 kts | 260° |
| 2026-05-08 12:24 | 53.71793 | 10.50538 | 24161 ft | 242 kts | 260° |
| 2026-05-08 12:24 | 53.71495 | 10.47734 | 24516 ft | 244 kts | 260° |
| 2026-05-08 12:24 | 53.71194 | 10.44914 | 24878 ft | 244 kts | 260° |
| 2026-05-08 12:24 | 53.70891 | 10.42087 | 25244 ft | 245 kts | 260° |
| 2026-05-08 12:25 | 53.70587 | 10.39256 | 25586 ft | 246 kts | 260° |
| 2026-05-08 12:25 | 53.70282 | 10.36416 | 25927 ft | 247 kts | 260° |
| 2026-05-08 12:25 | 53.69973 | 10.33559 | 26193 ft | 250 kts | 260° |
| 2026-05-08 12:25 | 53.69655 | 10.30611 | 26189 ft | 257 kts | 260° |
| 2026-05-08 12:26 | 53.69338 | 10.27671 | 26187 ft | 252 kts | 260° |
| 2026-05-08 12:26 | 53.69019 | 10.24740 | 26186 ft | 257 kts | 260° |
| 2026-05-08 12:26 | 53.68692 | 10.21744 | 26192 ft | 262 kts | 260° |
| 2026-05-08 12:26 | 53.68247 | 10.18744 | 26195 ft | 265 kts | 253° |
| 2026-05-08 12:27 | 53.67697 | 10.15771 | 26196 ft | 267 kts | 254° |
| 2026-05-08 12:27 | 53.67159 | 10.12792 | 26191 ft | 264 kts | 254° |
| 2026-05-08 12:27 | 53.66625 | 10.09834 | 26190 ft | 263 kts | 254° |
| 2026-05-08 12:27 | 53.66090 | 10.06892 | 26190 ft | 262 kts | 254° |
| 2026-05-08 12:28 | 53.65556 | 10.03962 | 26188 ft | 262 kts | 254° |
| 2026-05-08 12:28 | 53.65020 | 10.01029 | 26188 ft | 261 kts | 254° |
| 2026-05-08 12:28 | 53.64486 | 9.98102 | 26187 ft | 261 kts | 254° |
| 2026-05-08 12:28 | 53.63950 | 9.95177 | 26185 ft | 261 kts | 254° |
| 2026-05-08 12:29 | 53.63422 | 9.92294 | 26186 ft | 261 kts | 254° |
| 2026-05-08 12:29 | 53.62886 | 9.89371 | 26185 ft | 261 kts | 254° |
| 2026-05-08 12:29 | 53.62349 | 9.86450 | 26185 ft | 261 kts | 253° |
| 2026-05-08 12:29 | 53.61811 | 9.83531 | 26212 ft | 261 kts | 253° |
| 2026-05-08 12:30 | 53.61273 | 9.80616 | 26209 ft | 261 kts | 253° |
| 2026-05-08 12:30 | 53.60734 | 9.77699 | 26209 ft | 261 kts | 253° |
| 2026-05-08 12:30 | 53.60195 | 9.74785 | 26210 ft | 261 kts | 253° |
| 2026-05-08 12:30 | 53.59655 | 9.71871 | 26204 ft | 261 kts | 254° |
| 2026-05-08 12:31 | 53.59114 | 9.68959 | 26203 ft | 260 kts | 254° |
| 2026-05-08 12:31 | 53.58575 | 9.66052 | 26201 ft | 260 kts | 254° |
| 2026-05-08 12:31 | 53.58032 | 9.63140 | 26201 ft | 260 kts | 253° |
| 2026-05-08 12:31 | 53.57491 | 9.60239 | 26200 ft | 260 kts | 253° |
| 2026-05-08 12:32 | 53.56948 | 9.57330 | 26200 ft | 260 kts | 253° |
| 2026-05-08 12:32 | 53.56405 | 9.54432 | 26197 ft | 260 kts | 253° |
| 2026-05-08 12:32 | 53.55861 | 9.51527 | 26193 ft | 260 kts | 253° |
| 2026-05-08 12:32 | 53.55317 | 9.48623 | 26193 ft | 260 kts | 253° |
| 2026-05-08 12:33 | 53.54771 | 9.45721 | 26192 ft | 260 kts | 253° |
| 2026-05-08 12:33 | 53.54225 | 9.42819 | 26190 ft | 261 kts | 253° |
| 2026-05-08 12:33 | 53.53677 | 9.39914 | 26188 ft | 260 kts | 253° |
| 2026-05-08 12:33 | 53.53130 | 9.37012 | 26180 ft | 260 kts | 253° |
| 2026-05-08 12:34 | 53.52582 | 9.34116 | 26178 ft | 260 kts | 253° |
| 2026-05-08 12:34 | 53.52033 | 9.31218 | 26180 ft | 260 kts | 253° |
| 2026-05-08 12:34 | 53.51483 | 9.28320 | 26179 ft | 260 kts | 253° |
| 2026-05-08 12:34 | 53.50934 | 9.25428 | 26180 ft | 260 kts | 253° |
| 2026-05-08 12:35 | 53.50384 | 9.22536 | 26178 ft | 260 kts | 253° |
| 2026-05-08 12:35 | 53.49833 | 9.19648 | 26180 ft | 260 kts | 253° |
| 2026-05-08 12:35 | 53.49282 | 9.16759 | 26179 ft | 260 kts | 253° |
| 2026-05-08 12:35 | 53.48731 | 9.13875 | 26181 ft | 260 kts | 253° |
| 2026-05-08 12:36 | 53.48177 | 9.10985 | 26171 ft | 260 kts | 253° |
| 2026-05-08 12:36 | 53.47624 | 9.08099 | 26172 ft | 260 kts | 253° |
| 2026-05-08 12:36 | 53.47070 | 9.05212 | 26172 ft | 260 kts | 253° |
| 2026-05-08 12:36 | 53.46516 | 9.02331 | 26172 ft | 260 kts | 253° |
| 2026-05-08 12:37 | 53.45959 | 8.99441 | 26172 ft | 260 kts | 253° |
| 2026-05-08 12:37 | 53.45403 | 8.96560 | 26175 ft | 260 kts | 253° |
| 2026-05-08 12:37 | 53.44847 | 8.93681 | 26174 ft | 260 kts | 253° |
| 2026-05-08 12:37 | 53.44289 | 8.90796 | 26174 ft | 260 kts | 253° |
| 2026-05-08 12:38 | 53.43732 | 8.87915 | 26171 ft | 260 kts | 253° |
| 2026-05-08 12:38 | 53.43172 | 8.85035 | 26172 ft | 260 kts | 253° |
| 2026-05-08 12:38 | 53.42612 | 8.82155 | 26173 ft | 260 kts | 253° |
| 2026-05-08 12:38 | 53.42051 | 8.79270 | 26173 ft | 260 kts | 253° |
| 2026-05-08 12:39 | 53.41489 | 8.76386 | 26162 ft | 260 kts | 253° |
| 2026-05-08 12:39 | 53.40927 | 8.73506 | 26170 ft | 260 kts | 253° |